Wetterdaten: Woche 09.11.15 - 15.11.15 (KW46)
Datum Zeit Temperatur Luftfeuchte Luftdruck Niederschlag Windrichtung Sonnenschein Solar Wind
09.11.2015 00:00 8,4 C 95 % 1024,5 hPa 0,0 l/m SW 0,00 h 0 W/m 4,7 km/h (1 Bft)
09.11.2015 01:00 9,3 C 96 % 1024,4 hPa 0,0 l/m SW 0,00 h 0 W/m 2,9 km/h (1 Bft)
09.11.2015 02:00 8,8 C 95 % 1024,7 hPa 0,0 l/m S-SW 0,00 h 0 W/m 5,2 km/h (1 Bft)
09.11.2015 03:00 8,6 C 96 % 1024,8 hPa 0,0 l/m S-SW 0,00 h 0 W/m 3,7 km/h (1 Bft)
09.11.2015 04:00 8,6 C 96 % 1024,9 hPa 0,0 l/m SW 0,00 h 0 W/m 9,3 km/h (2 Bft)
09.11.2015 05:00 10,0 C 91 % 1025,6 hPa 0,0 l/m SW 0,00 h 0 W/m 16,1 km/h (3 Bft)
09.11.2015 06:00 11,3 C 82 % 1026,2 hPa 0,0 l/m SW 0,00 h 0 W/m 16,1 km/h (3 Bft)
09.11.2015 07:00 12,3 C 77 % 1026,6 hPa 0,0 l/m W-SW 0,08 h 18 W/m 18,9 km/h (3 Bft)
09.11.2015 08:00 11,6 C 82 % 1026,6 hPa 0,0 l/m SW 0,00 h 38 W/m 16,1 km/h (3 Bft)
09.11.2015 09:00 11,9 C 84 % 1026,7 hPa 0,0 l/m SW 0,00 h 31 W/m 15,7 km/h (3 Bft)
09.11.2015 10:00 12,7 C 83 % 1026,4 hPa 0,0 l/m SW 0,08 h 119 W/m 14,6 km/h (3 Bft)
09.11.2015 11:00 15,0 C 77 % 1026,3 hPa 0,0 l/m W-SW 0,17 h 140 W/m 20,6 km/h (4 Bft)
09.11.2015 12:00 16,7 C 71 % 1026,2 hPa 0,0 l/m W-SW 0,25 h 198 W/m 22,9 km/h (4 Bft)
09.11.2015 13:00 17,1 C 71 % 1026,0 hPa 0,0 l/m W-SW 0,50 h 267 W/m 21,4 km/h (4 Bft)
09.11.2015 14:00 17,7 C 70 % 1025,5 hPa 0,0 l/m W-SW 0,25 h 157 W/m 19,0 km/h (3 Bft)
09.11.2015 15:00 17,7 C 71 % 1025,6 hPa 0,0 l/m W 0,00 h 62 W/m 17,7 km/h (3 Bft)
09.11.2015 16:00 17,0 C 72 % 1026,0 hPa 0,0 l/m W 0,25 h 25 W/m 16,0 km/h (3 Bft)
09.11.2015 17:00 15,8 C 75 % 1026,3 hPa 0,0 l/m W 0,00 h 0 W/m 12,2 km/h (2 Bft)
09.11.2015 18:00 14,7 C 79 % 1026,6 hPa 0,0 l/m W 0,00 h 0 W/m 9,3 km/h (2 Bft)
09.11.2015 19:00 13,0 C 82 % 1027,3 hPa 0,0 l/m SW 0,00 h 0 W/m 5,8 km/h (2 Bft)
09.11.2015 20:00 11,3 C 87 % 1027,5 hPa 0,0 l/m SW 0,00 h 0 W/m 7,4 km/h (2 Bft)
09.11.2015 21:00 10,7 C 92 % 1028,0 hPa 0,0 l/m SW 0,00 h 0 W/m 7,0 km/h (2 Bft)
09.11.2015 22:00 10,3 C 94 % 1028,1 hPa 0,0 l/m SW 0,00 h 0 W/m 8,4 km/h (2 Bft)
09.11.2015 23:00 9,8 C 95 % 1028,2 hPa 0,0 l/m SW 0,00 h 0 W/m 7,1 km/h (2 Bft)
10.11.2015 00:00 9,6 C 96 % 1027,7 hPa 0,0 l/m SW 0,00 h 0 W/m 10,5 km/h (2 Bft)
10.11.2015 01:00 10,2 C 96 % 1027,5 hPa 0,0 l/m SW 0,00 h 0 W/m 13,8 km/h (3 Bft)
10.11.2015 02:00 9,9 C 95 % 1027,7 hPa 0,0 l/m SW 0,00 h 0 W/m 4,7 km/h (1 Bft)
10.11.2015 03:00 9,8 C 96 % 1027,2 hPa 0,0 l/m SW 0,00 h 0 W/m 12,2 km/h (2 Bft)
10.11.2015 04:00 10,3 C 93 % 1026,8 hPa 0,0 l/m W-SW 0,00 h 0 W/m 16,1 km/h (3 Bft)
10.11.2015 05:00 10,8 C 88 % 1026,9 hPa 0,0 l/m W-SW 0,00 h 0 W/m 8,2 km/h (2 Bft)
10.11.2015 06:00 9,8 C 89 % 1027,1 hPa 0,0 l/m SW 0,00 h 0 W/m 6,6 km/h (2 Bft)
10.11.2015 07:00 8,9 C 95 % 1027,2 hPa 0,0 l/m S-SW 0,00 h 17 W/m 11,9 km/h (2 Bft)
10.11.2015 08:00 9,2 C 97 % 1027,4 hPa 0,0 l/m S-SW 0,17 h 73 W/m 13,4 km/h (3 Bft)
10.11.2015 09:00 10,1 C 98 % 1027,8 hPa 0,0 l/m S-SW 0,92 h 215 W/m 11,3 km/h (2 Bft)
10.11.2015 10:00 12,0 C 86 % 1027,7 hPa 0,0 l/m SW 0,83 h 257 W/m 17,0 km/h (3 Bft)
10.11.2015 11:00 14,1 C 70 % 1027,3 hPa 0,0 l/m SW 0,92 h 388 W/m 17,4 km/h (3 Bft)
10.11.2015 12:00 15,6 C 61 % 1026,4 hPa 0,0 l/m SW 1,00 h 418 W/m 17,0 km/h (3 Bft)
10.11.2015 13:00 16,5 C 57 % 1025,3 hPa 0,0 l/m SW 1,00 h 385 W/m 16,6 km/h (3 Bft)
10.11.2015 14:00 17,2 C 54 % 1024,8 hPa 0,0 l/m SW 1,00 h 309 W/m 15,2 km/h (3 Bft)
10.11.2015 15:00 17,8 C 45 % 1024,5 hPa 0,0 l/m W-SW 1,00 h 164 W/m 8,6 km/h (2 Bft)
10.11.2015 16:00 16,7 C 50 % 1024,4 hPa 0,0 l/m N 0,08 h 20 W/m 0,3 km/h (0 Bft)
10.11.2015 17:00 13,6 C 61 % 1024,5 hPa 0,0 l/m N 0,00 h 0 W/m 0,0 km/h (0 Bft)
10.11.2015 18:00 11,1 C 69 % 1024,8 hPa 0,0 l/m N 0,00 h 0 W/m 0,0 km/h (0 Bft)
10.11.2015 19:00 9,4 C 74 % 1025,4 hPa 0,0 l/m N 0,00 h 0 W/m 0,0 km/h (0 Bft)
10.11.2015 20:00 8,2 C 78 % 1025,7 hPa 0,0 l/m N 0,00 h 0 W/m 0,0 km/h (0 Bft)
10.11.2015 21:00 7,2 C 82 % 1025,7 hPa 0,0 l/m N 0,00 h 0 W/m 0,0 km/h (0 Bft)
10.11.2015 22:00 6,4 C 85 % 1025,9 hPa 0,0 l/m N 0,00 h 0 W/m 0,0 km/h (0 Bft)
10.11.2015 23:00 5,7 C 87 % 1025,9 hPa 0,0 l/m N 0,00 h 0 W/m 0,0 km/h (0 Bft)
11.11.2015 00:00 5,2 C 89 % 1025,7 hPa 0,0 l/m N 0,00 h 0 W/m 0,0 km/h (0 Bft)
11.11.2015 01:00 4,6 C 89 % 1025,7 hPa 0,0 l/m N 0,00 h 0 W/m 0,0 km/h (0 Bft)
11.11.2015 02:00 3,9 C 90 % 1025,7 hPa 0,0 l/m N 0,00 h 0 W/m 0,0 km/h (0 Bft)
11.11.2015 03:00 3,5 C 92 % 1025,8 hPa 0,0 l/m N 0,00 h 0 W/m 0,0 km/h (0 Bft)
11.11.2015 04:00 3,3 C 93 % 1025,7 hPa 0,0 l/m N 0,00 h 0 W/m 0,0 km/h (0 Bft)
11.11.2015 05:00 4,1 C 95 % 1025,7 hPa 0,0 l/m W-SW 0,00 h 0 W/m 5,2 km/h (1 Bft)
11.11.2015 06:00 4,8 C 96 % 1025,9 hPa 0,0 l/m N 0,00 h 0 W/m 0,5 km/h (0 Bft)
11.11.2015 07:00 4,5 C 96 % 1025,8 hPa 0,0 l/m N 0,00 h 9 W/m 0,0 km/h (0 Bft)
11.11.2015 08:00 4,2 C 97 % 1026,4 hPa 0,0 l/m W-SW 0,00 h 42 W/m 1,1 km/h (0 Bft)
11.11.2015 09:00 4,8 C 98 % 1026,7 hPa 0,2 l/m W-SW 0,17 h 129 W/m 5,6 km/h (1 Bft)
11.11.2015 10:00 6,4 C 98 % 1027,1 hPa 0,0 l/m W-SW 0,75 h 251 W/m 7,9 km/h (2 Bft)
11.11.2015 11:00 8,6 C 99 % 1026,7 hPa 0,0 l/m S-SW 0,83 h 362 W/m 11,0 km/h (2 Bft)
11.11.2015 12:00 10,7 C 95 % 1026,2 hPa 0,0 l/m S-SW 1,00 h 409 W/m 12,0 km/h (2 Bft)
11.11.2015 13:00 12,4 C 85 % 1025,6 hPa 0,0 l/m S-SW 1,00 h 378 W/m 13,3 km/h (3 Bft)
11.11.2015 14:00 13,3 C 81 % 1025,2 hPa 0,0 l/m S-SW 1,00 h 299 W/m 12,5 km/h (3 Bft)
11.11.2015 15:00 13,7 C 76 % 1025,1 hPa 0,0 l/m SW 1,00 h 150 W/m 11,0 km/h (2 Bft)
11.11.2015 16:00 11,4 C 81 % 1024,9 hPa 0,0 l/m SW 0,17 h 16 W/m 8,9 km/h (2 Bft)
11.11.2015 17:00 9,4 C 85 % 1025,3 hPa 0,0 l/m SW 0,00 h 0 W/m 1,1 km/h (0 Bft)
11.11.2015 18:00 7,3 C 85 % 1025,7 hPa 0,0 l/m N 0,00 h 0 W/m 0,0 km/h (0 Bft)
11.11.2015 19:00 5,6 C 88 % 1026,1 hPa 0,0 l/m N 0,00 h 0 W/m 0,0 km/h (0 Bft)
11.11.2015 20:00 4,7 C 90 % 1026,0 hPa 0,0 l/m N 0,00 h 0 W/m 0,0 km/h (0 Bft)
11.11.2015 21:00 4,5 C 92 % 1026,3 hPa 0,0 l/m N 0,00 h 0 W/m 0,0 km/h (0 Bft)
11.11.2015 22:00 3,7 C 93 % 1026,3 hPa 0,0 l/m N 0,00 h 0 W/m 0,0 km/h (0 Bft)
11.11.2015 23:00 2,9 C 94 % 1026,0 hPa 0,0 l/m N 0,00 h 0 W/m 0,0 km/h (0 Bft)
12.11.2015 00:00 2,3 C 94 % 1026,0 hPa 0,0 l/m N 0,00 h 0 W/m 0,0 km/h (0 Bft)
12.11.2015 01:00 1,8 C 94 % 1026,4 hPa 0,0 l/m N 0,00 h 0 W/m 0,0 km/h (0 Bft)
12.11.2015 02:00 1,3 C 94 % 1026,7 hPa 0,0 l/m N 0,00 h 0 W/m 0,0 km/h (0 Bft)
12.11.2015 03:00 0,8 C 94 % 1027,0 hPa 0,0 l/m N 0,00 h 0 W/m 0,0 km/h (0 Bft)
12.11.2015 04:00 0,4 C 95 % 1027,5 hPa 0,0 l/m N 0,00 h 0 W/m 0,0 km/h (0 Bft)
12.11.2015 05:00 0,0 C 95 % 1028,1 hPa 0,0 l/m N 0,00 h 0 W/m 0,0 km/h (0 Bft)
12.11.2015 06:00 -0,2 C 95 % 1028,4 hPa 0,0 l/m N 0,00 h 0 W/m 0,0 km/h (0 Bft)
12.11.2015 07:00 -0,3 C 96 % 1029,0 hPa 0,0 l/m N 0,00 h 8 W/m 0,1 km/h (0 Bft)
12.11.2015 08:00 0,0 C 96 % 1029,5 hPa 0,0 l/m SW 0,00 h 29 W/m 1,6 km/h (1 Bft)
12.11.2015 09:00 2,0 C 98 % 1029,8 hPa 0,2 l/m SW 0,00 h 79 W/m 6,4 km/h (2 Bft)
12.11.2015 10:00 3,7 C 98 % 1029,9 hPa 0,0 l/m SW 0,00 h 109 W/m 4,7 km/h (1 Bft)
12.11.2015 11:00 4,9 C 98 % 1029,3 hPa 0,0 l/m SW 0,00 h 138 W/m 6,5 km/h (2 Bft)
12.11.2015 12:00 5,9 C 99 % 1028,4 hPa 0,0 l/m SW 0,25 h 207 W/m 4,0 km/h (1 Bft)
12.11.2015 13:00 7,3 C 99 % 1027,7 hPa 0,0 l/m N 0,92 h 365 W/m 0,0 km/h (0 Bft)
12.11.2015 14:00 10,1 C 100 % 1027,1 hPa 0,0 l/m N 1,00 h 292 W/m 0,0 km/h (0 Bft)
12.11.2015 15:00 12,7 C 91 % 1026,8 hPa 0,0 l/m N 1,00 h 138 W/m 0,0 km/h (0 Bft)
12.11.2015 16:00 12,3 C 78 % 1026,6 hPa 0,0 l/m N 0,08 h 15 W/m 0,0 km/h (0 Bft)
12.11.2015 17:00 9,5 C 82 % 1026,4 hPa 0,0 l/m N 0,00 h 0 W/m 0,1 km/h (0 Bft)
12.11.2015 18:00 7,2 C 86 % 1026,3 hPa 0,0 l/m N 0,00 h 0 W/m 0,4 km/h (0 Bft)
12.11.2015 19:00 4,7 C 88 % 1026,3 hPa 0,0 l/m N 0,00 h 0 W/m 0,0 km/h (0 Bft)
12.11.2015 20:00 3,3 C 91 % 1026,1 hPa 0,0 l/m N 0,00 h 0 W/m 0,0 km/h (0 Bft)
12.11.2015 21:00 2,9 C 94 % 1025,9 hPa 0,0 l/m N 0,00 h 0 W/m 0,0 km/h (0 Bft)
12.11.2015 22:00 2,9 C 95 % 1025,8 hPa 0,0 l/m N 0,00 h 0 W/m 0,0 km/h (0 Bft)
12.11.2015 23:00 2,9 C 96 % 1025,8 hPa 0,0 l/m SW 0,00 h 0 W/m 5,8 km/h (1 Bft)
13.11.2015 00:00 3,1 C 97 % 1025,9 hPa 0,0 l/m SW 0,00 h 0 W/m 6,4 km/h (2 Bft)
13.11.2015 01:00 3,9 C 98 % 1025,8 hPa 0,0 l/m SW 0,00 h 0 W/m 10,7 km/h (2 Bft)
13.11.2015 02:00 4,2 C 98 % 1025,7 hPa 0,0 l/m SW 0,00 h 0 W/m 12,2 km/h (2 Bft)
13.11.2015 03:00 4,2 C 98 % 1025,8 hPa 0,0 l/m SW 0,00 h 0 W/m 11,4 km/h (2 Bft)
13.11.2015 04:00 4,2 C 98 % 1025,8 hPa 0,0 l/m SW 0,00 h 0 W/m 13,8 km/h (3 Bft)
13.11.2015 05:00 4,1 C 99 % 1026,1 hPa 0,0 l/m SW 0,00 h 0 W/m 14,4 km/h (3 Bft)
13.11.2015 06:00 4,4 C 99 % 1026,6 hPa 0,0 l/m SW 0,00 h 0 W/m 12,4 km/h (3 Bft)
13.11.2015 07:00 4,7 C 99 % 1026,7 hPa 0,0 l/m SW 0,00 h 11 W/m 11,0 km/h (2 Bft)
13.11.2015 08:00 5,0 C 99 % 1027,3 hPa 0,0 l/m SW 0,00 h 55 W/m 10,6 km/h (2 Bft)
13.11.2015 09:00 6,0 C 99 % 1027,7 hPa 0,0 l/m SW 0,00 h 97 W/m 9,0 km/h (2 Bft)
13.11.2015 10:00 6,6 C 99 % 1027,9 hPa 0,0 l/m S 0,00 h 90 W/m 10,1 km/h (2 Bft)
13.11.2015 11:00 7,5 C 100 % 1028,0 hPa 0,0 l/m S 0,58 h 258 W/m 8,9 km/h (2 Bft)
13.11.2015 12:00 8,7 C 100 % 1027,3 hPa 0,0 l/m S-SW 0,92 h 311 W/m 10,3 km/h (2 Bft)
13.11.2015 13:00 9,8 C 99 % 1026,8 hPa 0,0 l/m S-SW 0,25 h 176 W/m 10,4 km/h (2 Bft)
13.11.2015 14:00 10,1 C 95 % 1026,3 hPa 0,0 l/m S-SW 0,00 h 103 W/m 9,9 km/h (2 Bft)
13.11.2015 15:00 10,2 C 93 % 1026,2 hPa 0,0 l/m S-SW 0,00 h 79 W/m 1,9 km/h (1 Bft)
13.11.2015 16:00 9,9 C 91 % 1026,4 hPa 0,0 l/m S-SW 0,17 h 22 W/m 4,3 km/h (1 Bft)
13.11.2015 17:00 8,9 C 92 % 1026,8 hPa 0,0 l/m S-SW 0,00 h 0 W/m 5,1 km/h (1 Bft)
13.11.2015 18:00 8,6 C 94 % 1026,9 hPa 0,0 l/m S-SW 0,00 h 0 W/m 8,9 km/h (2 Bft)
13.11.2015 19:00 9,0 C 92 % 1027,1 hPa 0,0 l/m W-SW 0,00 h 0 W/m 17,7 km/h (3 Bft)
13.11.2015 20:00 9,7 C 87 % 1027,2 hPa 0,0 l/m W-SW 0,00 h 0 W/m 22,9 km/h (4 Bft)
13.11.2015 21:00 9,8 C 88 % 1027,4 hPa 0,0 l/m W-SW 0,00 h 0 W/m 19,2 km/h (3 Bft)
13.11.2015 22:00 10,0 C 87 % 1027,3 hPa 0,0 l/m SW 0,00 h 0 W/m 21,4 km/h (4 Bft)
13.11.2015 23:00 9,8 C 89 % 1027,6 hPa 0,2 l/m W-SW 0,00 h 0 W/m 21,4 km/h (4 Bft)
14.11.2015 00:00 9,5 C 93 % 1028,1 hPa 0,6 l/m W-SW 0,00 h 0 W/m 19,6 km/h (3 Bft)
14.11.2015 01:00 8,9 C 94 % 1028,9 hPa 0,6 l/m W-NW 0,00 h 0 W/m 15,7 km/h (3 Bft)
14.11.2015 02:00 8,3 C 94 % 1029,4 hPa 0,0 l/m W-SW 0,00 h 0 W/m 10,7 km/h (2 Bft)
14.11.2015 03:00 7,8 C 92 % 1029,5 hPa 0,0 l/m W 0,00 h 0 W/m 12,6 km/h (3 Bft)
14.11.2015 04:00 7,2 C 91 % 1029,5 hPa 0,2 l/m SW 0,00 h 0 W/m 9,4 km/h (2 Bft)
14.11.2015 05:00 6,8 C 91 % 1029,6 hPa 0,0 l/m W-SW 0,00 h 0 W/m 6,4 km/h (2 Bft)
14.11.2015 06:00 6,3 C 92 % 1029,6 hPa 0,0 l/m W-SW 0,00 h 0 W/m 9,0 km/h (2 Bft)
14.11.2015 07:00 6,1 C 93 % 1029,7 hPa 0,0 l/m W-SW 0,08 h 15 W/m 6,1 km/h (2 Bft)
14.11.2015 08:00 6,0 C 94 % 1029,9 hPa 0,0 l/m W-SW 0,00 h 54 W/m 5,4 km/h (1 Bft)
14.11.2015 09:00 6,6 C 96 % 1030,2 hPa 0,0 l/m W-SW 0,25 h 151 W/m 7,1 km/h (2 Bft)
14.11.2015 10:00 7,7 C 88 % 1030,1 hPa 0,0 l/m W-SW 0,33 h 185 W/m 13,7 km/h (3 Bft)
14.11.2015 11:00 8,7 C 76 % 1029,8 hPa 0,0 l/m W 0,58 h 234 W/m 18,4 km/h (3 Bft)
14.11.2015 12:00 9,4 C 68 % 1029,3 hPa 0,0 l/m W 1,00 h 364 W/m 18,9 km/h (3 Bft)
14.11.2015 13:00 10,0 C 65 % 1028,7 hPa 0,0 l/m W 0,83 h 243 W/m 13,7 km/h (3 Bft)
14.11.2015 14:00 10,0 C 66 % 1028,0 hPa 0,0 l/m W-NW 0,42 h 174 W/m 11,7 km/h (2 Bft)
14.11.2015 15:00 10,4 C 71 % 1027,4 hPa 0,0 l/m SW 0,67 h 106 W/m 13,3 km/h (3 Bft)
14.11.2015 16:00 9,3 C 76 % 1026,8 hPa 0,0 l/m SW 0,00 h 14 W/m 6,3 km/h (2 Bft)
14.11.2015 17:00 8,5 C 79 % 1026,6 hPa 0,0 l/m SW 0,00 h 0 W/m 2,5 km/h (1 Bft)
14.11.2015 18:00 7,9 C 82 % 1026,3 hPa 0,0 l/m N 0,00 h 0 W/m 0,9 km/h (0 Bft)
14.11.2015 19:00 7,6 C 85 % 1026,0 hPa 0,0 l/m SW 0,00 h 0 W/m 6,7 km/h (2 Bft)
14.11.2015 20:00 7,8 C 84 % 1025,5 hPa 0,0 l/m W-SW 0,00 h 0 W/m 9,1 km/h (2 Bft)
14.11.2015 21:00 7,8 C 84 % 1025,1 hPa 0,0 l/m W-SW 0,00 h 0 W/m 10,1 km/h (2 Bft)
14.11.2015 22:00 7,8 C 83 % 1024,7 hPa 0,0 l/m W-SW 0,00 h 0 W/m 14,5 km/h (3 Bft)
14.11.2015 23:00 8,2 C 79 % 1024,0 hPa 0,0 l/m W-SW 0,00 h 0 W/m 21,3 km/h (4 Bft)
15.11.2015 00:00 8,2 C 78 % 1023,6 hPa 0,0 l/m SW 0,00 h 0 W/m 21,4 km/h (4 Bft)
15.11.2015 01:00 7,9 C 77 % 1022,8 hPa 0,0 l/m W-SW 0,00 h 0 W/m 22,0 km/h (4 Bft)
15.11.2015 02:00 8,1 C 71 % 1022,2 hPa 0,0 l/m SW 0,00 h 0 W/m 21,6 km/h (4 Bft)
15.11.2015 03:00 8,1 C 69 % 1021,8 hPa 0,0 l/m SW 0,00 h 0 W/m 16,5 km/h (3 Bft)
15.11.2015 04:00 7,3 C 73 % 1020,9 hPa 0,0 l/m SW 0,00 h 0 W/m 14,9 km/h (3 Bft)
15.11.2015 05:00 8,0 C 66 % 1020,4 hPa 0,0 l/m SW 0,00 h 0 W/m 25,6 km/h (4 Bft)
15.11.2015 06:00 8,9 C 63 % 1020,2 hPa 0,0 l/m W-SW 0,00 h 0 W/m 28,2 km/h (4 Bft)
15.11.2015 07:00 8,9 C 66 % 1020,0 hPa 0,0 l/m W-SW 0,00 h 9 W/m 35,4 km/h (5 Bft)
15.11.2015 08:00 9,7 C 70 % 1020,0 hPa 0,0 l/m W-SW 0,00 h 37 W/m 37,0 km/h (5 Bft)
15.11.2015 09:00 10,8 C 74 % 1019,8 hPa 0,0 l/m W-SW 0,17 h 117 W/m 37,7 km/h (5 Bft)
15.11.2015 10:00 12,0 C 71 % 1019,4 hPa 0,0 l/m W-SW 0,33 h 173 W/m 36,5 km/h (5 Bft)
15.11.2015 11:00 13,1 C 68 % 1019,5 hPa 0,0 l/m W-SW 0,33 h 202 W/m 32,9 km/h (5 Bft)
15.11.2015 12:00 13,5 C 67 % 1019,3 hPa 0,0 l/m W-SW 0,00 h 129 W/m 32,3 km/h (5 Bft)
15.11.2015 13:00 14,3 C 65 % 1018,9 hPa 0,0 l/m W-SW 0,17 h 171 W/m 32,2 km/h (5 Bft)
15.11.2015 14:00 16,3 C 59 % 1018,3 hPa 0,0 l/m W 1,00 h 303 W/m 33,7 km/h (5 Bft)
15.11.2015 15:00 15,7 C 60 % 1018,3 hPa 0,0 l/m W-SW 0,92 h 109 W/m 31,4 km/h (5 Bft)
15.11.2015 16:00 14,8 C 63 % 1018,4 hPa 0,0 l/m W-SW 0,00 h 15 W/m 29,2 km/h (5 Bft)
15.11.2015 17:00 14,2 C 65 % 1018,2 hPa 0,0 l/m W-SW 0,00 h 0 W/m 26,7 km/h (4 Bft)
15.11.2015 18:00 13,9 C 65 % 1018,2 hPa 0,0 l/m W-SW 0,00 h 0 W/m 29,1 km/h (5 Bft)
15.11.2015 19:00 13,7 C 66 % 1018,2 hPa 0,0 l/m W-SW 0,00 h 0 W/m 27,1 km/h (4 Bft)
15.11.2015 20:00 13,4 C 67 % 1018,4 hPa 0,0 l/m W-SW 0,00 h 0 W/m 23,3 km/h (4 Bft)
15.11.2015 21:00 13,2 C 69 % 1018,4 hPa 0,0 l/m W-SW 0,00 h 0 W/m 22,4 km/h (4 Bft)
15.11.2015 22:00 12,4 C 72 % 1018,3 hPa 0,0 l/m SW 0,00 h 0 W/m 20,0 km/h (4 Bft)
15.11.2015 23:00 11,1 C 77 % 1018,4 hPa 0,0 l/m SW 0,00 h 0 W/m 14,6 km/h (3 Bft)
Min-Datum _ 12.11.15 10.11.15 15.11.15 - - - - 09.11.15
_ Min-Zeit 06:30 15:25 17:15 - - - - 00:00
Minimum _ -0,3 C 43 % 1018,1 hPa - - - - 0,0 km/h (0 Bft)
Max-Datum _ 10.11.15 12.11.15 14.11.15 14.11.15 - 09.11.15 09.11.15 15.11.15
_ Max-Zeit 15:05 13:50 09:25 00:15 - 07:35 12:40 10:25
Maximum _ 17,9 C 100 % 1030,4 hPa 0,6 l/m - 0,08 h 529 W/m 46,7 km/h
W-SW (6 Bft)
Durchschnitt _ 8,8 C 85 % 1025,7 hPa #2,0 l/m SW #26:40 h 153 W/m 10,8 km/h (2 Bft)